Nearby METAR Reports

 

KSNK - Snyder/Winston, Texas, USA
Distance from station: SSE 25mi, 41km
Updated: Sat, 04-Dec-2021 3:35am CST
Clear
Clear
 Wind from NNW
Wind: NNW 8 mph , 13 km/h
Temperature: 46°F , 8°C
Wind Chill: 42°F , 6°C
Dew Point: 27°F , -3°C
Humidity: 46%
Barometer: 30.05 inHg , 1017.6 hPa
Clouds: Clear
Visibility: 10 miles , 16 km
2021/12/04 09:35 KSNK 040935Z AUTO 34007KT 10SM CLR 08/M03 A3005 RMK AO2 T00821035
KSWW - Sweetwater, Texas, USA
Distance from station: SE 56mi, 90km
Updated: Sat, 04-Dec-2021 3:35am CST
Clear
Clear
 Wind from WNW
Wind: WNW 6 mph , 9 km/h
Temperature: 54°F , 12°C
Dew Point: 34°F , 1°C
Humidity: 47%
Barometer: 30.05 inHg , 1017.6 hPa
Clouds: Clear
Visibility: 10 miles , 16 km
2021/12/04 09:35 KSWW 040935Z AUTO 29005KT 10SM CLR 12/01 A3005 RMK AO2 T01180012
 
KLBB - Lubbock, Texas, USA
Distance from station: NW 59mi, 94km
Updated: Sat, 04-Dec-2021 2:53am CST
Clear
Clear
 Wind from NNW
Wind: NNW 13 mph , 20 km/h
Temperature: 43°F , 6°C
Wind Chill: 36°F , 2°C
Dew Point: 30°F , -1°C
Humidity: 61%
Barometer: 30.08 inHg , 1018.6 hPa
Clouds: Clear
Visibility: 10 miles , 16 km
2021/12/04 08:53 KLBB 040853Z 34011KT 10SM CLR 06/M01 A3008 RMK AO2 SLP155 T00561006 53004
KPVW - Plainview, Texas, USA
Distance from station: NNW 85mi, 137km
Updated: Sat, 04-Dec-2021 3:35am CST
Clear
Clear
 Wind from N
Wind: N 12 mph , 19 km/h, Gust: 16 mph , 26 km/h
Temperature: 41°F , 5°C
Wind Chill: 34°F , 1°C
Dew Point: 32°F , 0°C
Humidity: 70%
Barometer: 30.09 inHg , 1019 hPa
Clouds: Clear
Visibility: 10 miles , 16 km
2021/12/04 09:35 KPVW 040935Z AUTO 35010G14KT 10SM CLR 05/00 A3009 RMK AO2 T00450000
 
KDYS - Dyess Afb/Abilen, Texas, USA
Distance from station: ESE 88mi, 141km
Updated: Sat, 04-Dec-2021 2:56am CST
Clear
Clear
 Wind from SSW
Wind: SSW 7 mph , 11 km/h
Temperature: 66°F , 19°C
Dew Point: 54°F , 12°C
Humidity: 64%
Barometer: 29.97 inHg , 1014.9 hPa
Clouds: Clear
Visibility: 10 miles , 16 km
2021/12/04 08:56 KDYS 040856Z AUTO 21006KT 10SM CLR 19/12 A2997 RMK AO2 SLP107 T01910116 50002
KGNC - Seminole, Texas, USA
Distance from station: WSW 89mi, 144km
Updated: Sat, 04-Dec-2021 3:35am CST
Clear
Clear
 Wind from N
Wind: N 12 mph , 19 km/h
Temperature: 46°F , 8°C
Wind Chill: 40°F , 4°C
Dew Point: 32°F , 0°C
Humidity: 57%
Barometer: 30.15 inHg , 1021 hPa
Clouds: Clear
Visibility: 10 miles , 16 km
2021/12/04 09:35 KGNC 040935Z AUTO 35010KT 10SM CLR 08/00 A3015 RMK AO2 T00800003
 
KE11 - Andrews, Texas, USA
Distance from station: WSW 93mi, 149km
Updated: Sat, 04-Dec-2021 3:35am CST
Clear
Clear
 Wind from NNW
Wind: NNW 9 mph , 15 km/h
Temperature: 45°F , 7°C
Wind Chill: 40°F , 4°C
Dew Point: 30°F , -1°C
Humidity: 57%
Barometer: 30.11 inHg , 1019.6 hPa
Clouds: Clear
Visibility: 10 miles , 16 km
2021/12/04 09:35 KE11 040935Z AUTO 34008KT 10SM CLR 07/M01 A3011 RMK AO2 T00701010
KABI - Abilene, Texas, USA
Distance from station: ESE 96mi, 154km
Updated: Sat, 04-Dec-2021 2:52am CST
Clear
Clear
 Wind from SSW
Wind: SSW 16 mph , 26 km/h
Temperature: 66°F , 19°C
Dew Point: 55°F , 13°C
Humidity: 68%
Barometer: 29.99 inHg , 1015.6 hPa
Clouds: Clear
Visibility: 10 miles , 16 km
2021/12/04 08:52 KABI 040852Z 20014KT 10SM CLR 19/13 A2999 RMK AO2 SLP130 T01940133 50001
 
KMAF - Midland, Texas, USA
Distance from station: SW 96mi, 154km
Updated: Sat, 04-Dec-2021 2:53am CST
Clear
Clear
 Wind from NNW
Wind: NNW 9 mph , 15 km/h
Temperature: 45°F , 7°C
Wind Chill: 40°F , 4°C
Dew Point: 25°F , -4°C
Humidity: 46%
Barometer: 30.07 inHg , 1018.3 hPa
Clouds: Clear
Visibility: 10 miles , 16 km
2021/12/04 08:53 KMAF 040853Z AUTO 34008KT 10SM CLR 07/M04 A3007 RMK AO2 SLP153 T00721039 53007 $
KCDS - Childress, Texas, USA
Distance from station: NNE 110mi, 177km
Updated: Sat, 04-Dec-2021 2:53am CST
Clear
Clear
 Wind from N
Wind: N 12 mph , 19 km/h
Temperature: 46°F , 8°C
Wind Chill: 40°F , 4°C
Dew Point: 36°F , 2°C
Humidity: 66%
Barometer: 30.04 inHg , 1017.3 hPa
Clouds: Clear
Visibility: 10 miles , 16 km
2021/12/04 08:53 KCDS 040853Z AUTO 35010KT 10SM CLR 08/02 A3004 RMK AO2 SLP157 T00830022 53007
 
KSJT - San Angelo, Texas, USA
Distance from station: SSE 121mi, 194km
Updated: Sat, 04-Dec-2021 2:51am CST
Clear
Clear
 Wind from SSW
Wind: SSW 5 mph , 7 km/h
Temperature: 55°F , 13°C
Dew Point: 52°F , 11°C
Humidity: 88%
Barometer: 30.02 inHg , 1016.6 hPa
Clouds: Clear
Visibility: 10 miles , 16 km
2021/12/04 08:51 KSJT 040851Z AUTO 20004KT 10SM CLR 13/11 A3002 RMK AO2 SLP147 T01330111 50001
KHOB - Hobbs/Lea Co., New Mexico, USA
Distance from station: WSW 122mi, 196km
Updated: Sat, 04-Dec-2021 3:35am CST
Clear
Clear
 Wind from NNW
Wind: NNW 15 mph , 24 km/h
Temperature: 45°F , 7°C
Wind Chill: 38°F , 3°C
Dew Point: 32°F , 0°C
Humidity: 61%
Barometer: 30.13 inHg , 1020.3 hPa
Clouds: Clear
Visibility: 10 miles , 16 km
2021/12/04 09:35 KHOB 040935Z AUTO 34013KT 10SM CLR 07/M00 A3013 RMK AO2
 
KCOM - Coleman Muni, Texas, USA
Distance from station: SE 131mi, 212km
Updated: Sat, 04-Dec-2021 3:35am CST
Clear
Clear
 Wind from SSW
Wind: SSW 5 mph , 7 km/h
Temperature: 63°F , 17°C
Dew Point: 59°F , 15°C
Humidity: 88%
Barometer: 30.02 inHg , 1016.6 hPa
Clouds: Clear
Visibility: 10 miles , 16 km
2021/12/04 09:35 KCOM 040935Z AUTO 21004KT 10SM CLR 17/15 A3002 RMK AO2 T01650147
KBKD - Breckenridge, Texas, USA
Distance from station: E 134mi, 215km
Updated: Sat, 04-Dec-2021 3:35am CST
Mostly cloudy
Mostly cloudy
 Wind from calm
Wind: Calm
Temperature: 66°F , 19°C
Dew Point: 61°F , 16°C
Humidity: 83%
Barometer: 29.98 inHg , 1015.2 hPa
Clouds: Mostly cloudy
Visibility: 10 miles , 16 km
Cloud details: Mostly cloudy 12000 ft
2021/12/04 09:35 KBKD 040935Z AUTO 00000KT 10SM BKN120 19/16 A2998 RMK AO2 T01880162
 
KF05 - Vernon Wilbarger, Texas, USA
Distance from station: NE 137mi, 220km
Updated: Sat, 04-Dec-2021 3:35am CST
Clear
Clear
 Wind from NNE
Wind: NNE 7 mph , 11 km/h
Temperature: 50°F , 10°C
Wind Chill: 47°F , 8°C
Dew Point: 39°F , 4°C
Humidity: 67%
Barometer: 30.00 inHg , 1015.9 hPa
Clouds: Clear
Visibility: 10 miles , 16 km
2021/12/04 09:35 KF05 040935Z AUTO 02006KT 10SM CLR 10/04 A3000 RMK AO2 T01000043